sensor_id;sensor_type;location;lat;lon;timestamp;P1;durP1;ratioP1;P2;durP2;ratioP2
13388;SDS011;6764;53.250;10.410;2022-10-15T00:01:15;6.18;;;5.35;;
13388;SDS011;6764;53.250;10.410;2022-10-15T00:03:41;7.72;;;5.78;;
13388;SDS011;6764;53.250;10.410;2022-10-15T00:06:09;7.55;;;5.97;;
13388;SDS011;6764;53.250;10.410;2022-10-15T00:08:37;6.88;;;6.18;;
13388;SDS011;6764;53.250;10.410;2022-10-15T00:11:04;9.32;;;6.75;;
13388;SDS011;6764;53.250;10.410;2022-10-15T00:13:35;6.30;;;5.60;;
13388;SDS011;6764;53.250;10.410;2022-10-15T00:16:01;10.30;;;6.53;;
13388;SDS011;6764;53.250;10.410;2022-10-15T00:18:28;7.60;;;6.35;;
13388;SDS011;6764;53.250;10.410;2022-10-15T00:20:53;7.28;;;5.93;;
13388;SDS011;6764;53.250;10.410;2022-10-15T00:23:19;7.05;;;6.35;;
13388;SDS011;6764;53.250;10.410;2022-10-15T00:25:44;7.05;;;6.00;;
13388;SDS011;6764;53.250;10.410;2022-10-15T00:28:10;7.47;;;6.68;;
13388;SDS011;6764;53.250;10.410;2022-10-15T00:30:35;7.38;;;6.55;;
13388;SDS011;6764;53.250;10.410;2022-10-15T00:33:04;8.57;;;7.30;;
13388;SDS011;6764;53.250;10.410;2022-10-15T00:35:29;7.47;;;6.65;;
13388;SDS011;6764;53.250;10.410;2022-10-15T00:37:55;8.63;;;7.00;;
13388;SDS011;6764;53.250;10.410;2022-10-15T00:40:20;9.43;;;7.32;;
13388;SDS011;6764;53.250;10.410;2022-10-15T00:42:47;8.85;;;7.07;;
13388;SDS011;6764;53.250;10.410;2022-10-15T00:45:13;8.90;;;7.00;;
13388;SDS011;6764;53.250;10.410;2022-10-15T00:47:40;8.68;;;6.95;;
13388;SDS011;6764;53.250;10.410;2022-10-15T00:50:10;10.13;;;8.10;;
13388;SDS011;6764;53.250;10.410;2022-10-15T00:57:54;9.00;;;7.32;;
13388;SDS011;6764;53.250;10.410;2022-10-15T01:00:22;11.82;;;7.90;;
13388;SDS011;6764;53.250;10.410;2022-10-15T01:02:47;7.95;;;7.13;;
13388;SDS011;6764;53.250;10.410;2022-10-15T01:05:14;7.90;;;7.25;;
13388;SDS011;6764;53.250;10.410;2022-10-15T01:07:40;12.75;;;7.40;;
13388;SDS011;6764;53.250;10.410;2022-10-15T01:10:06;8.20;;;7.25;;
13388;SDS011;6764;53.250;10.410;2022-10-15T01:15:21;8.73;;;7.43;;
13388;SDS011;6764;53.250;10.410;2022-10-15T01:18:37;7.90;;;7.00;;
13388;SDS011;6764;53.250;10.410;2022-10-15T01:23:45;8.30;;;7.50;;
13388;SDS011;6764;53.250;10.410;2022-10-15T01:26:53;10.05;;;8.10;;
13388;SDS011;6764;53.250;10.410;2022-10-15T01:32:18;9.27;;;8.37;;
13388;SDS011;6764;53.250;10.410;2022-10-15T01:34:53;8.93;;;8.02;;
13388;SDS011;6764;53.250;10.410;2022-10-15T01:37:32;9.38;;;8.48;;
13388;SDS011;6764;53.250;10.410;2022-10-15T01:42:56;12.10;;;9.57;;
13388;SDS011;6764;53.250;10.410;2022-10-15T01:45:27;11.85;;;9.15;;
13388;SDS011;6764;53.250;10.410;2022-10-15T01:48:08;10.17;;;9.13;;
13388;SDS011;6764;53.250;10.410;2022-10-15T01:50:37;10.35;;;9.45;;
13388;SDS011;6764;53.250;10.410;2022-10-15T01:53:07;10.95;;;9.85;;
13388;SDS011;6764;53.250;10.410;2022-10-15T01:55:35;10.95;;;9.95;;
13388;SDS011;6764;53.250;10.410;2022-10-15T01:58:05;12.38;;;11.07;;
13388;SDS011;6764;53.250;10.410;2022-10-15T02:00:32;11.98;;;10.88;;
13388;SDS011;6764;53.250;10.410;2022-10-15T02:03:01;15.13;;;11.18;;
13388;SDS011;6764;53.250;10.410;2022-10-15T02:05:29;12.68;;;10.88;;
13388;SDS011;6764;53.250;10.410;2022-10-15T02:08:19;14.20;;;11.75;;
13388;SDS011;6764;53.250;10.410;2022-10-15T02:11:09;13.82;;;12.32;;
13388;SDS011;6764;53.250;10.410;2022-10-15T02:16:37;15.27;;;12.80;;
13388;SDS011;6764;53.250;10.410;2022-10-15T02:21:58;14.15;;;12.75;;
13388;SDS011;6764;53.250;10.410;2022-10-15T02:24:45;14.67;;;13.33;;
13388;SDS011;6764;53.250;10.410;2022-10-15T02:27:15;16.50;;;14.20;;
13388;SDS011;6764;53.250;10.410;2022-10-15T02:29:42;15.63;;;14.02;;
13388;SDS011;6764;53.250;10.410;2022-10-15T02:32:12;16.17;;;14.63;;
13388;SDS011;6764;53.250;10.410;2022-10-15T02:34:40;16.50;;;14.50;;
13388;SDS011;6764;53.250;10.410;2022-10-15T02:37:08;15.63;;;14.10;;
13388;SDS011;6764;53.250;10.410;2022-10-15T02:39:34;15.55;;;13.98;;
13388;SDS011;6764;53.250;10.410;2022-10-15T02:41:59;15.80;;;14.07;;
13388;SDS011;6764;53.250;10.410;2022-10-15T02:44:26;17.03;;;14.20;;
13388;SDS011;6764;53.250;10.410;2022-10-15T02:46:51;16.67;;;14.38;;
13388;SDS011;6764;53.250;10.410;2022-10-15T02:49:18;16.42;;;14.82;;
13388;SDS011;6764;53.250;10.410;2022-10-15T02:51:43;16.00;;;14.33;;
13388;SDS011;6764;53.250;10.410;2022-10-15T02:54:09;17.07;;;14.87;;
13388;SDS011;6764;53.250;10.410;2022-10-15T02:56:34;16.00;;;14.50;;
13388;SDS011;6764;53.250;10.410;2022-10-15T02:59:03;16.50;;;14.70;;
13388;SDS011;6764;53.250;10.410;2022-10-15T03:01:29;17.87;;;15.33;;
13388;SDS011;6764;53.250;10.410;2022-10-15T03:03:55;17.33;;;15.50;;
13388;SDS011;6764;53.250;10.410;2022-10-15T03:06:21;15.90;;;14.37;;
13388;SDS011;6764;53.250;10.410;2022-10-15T03:08:47;16.37;;;14.50;;
13388;SDS011;6764;53.250;10.410;2022-10-15T03:11:12;16.77;;;14.97;;
13388;SDS011;6764;53.250;10.410;2022-10-15T03:13:38;15.93;;;14.20;;
13388;SDS011;6764;53.250;10.410;2022-10-15T03:16:05;14.47;;;12.97;;
13388;SDS011;6764;53.250;10.410;2022-10-15T03:18:32;15.60;;;13.80;;
13388;SDS011;6764;53.250;10.410;2022-10-15T03:20:57;15.07;;;13.53;;
13388;SDS011;6764;53.250;10.410;2022-10-15T03:23:23;16.83;;;13.47;;
13388;SDS011;6764;53.250;10.410;2022-10-15T03:25:49;14.67;;;13.17;;
13388;SDS011;6764;53.250;10.410;2022-10-15T03:28:14;15.53;;;13.93;;
13388;SDS011;6764;53.250;10.410;2022-10-15T03:30:49;15.80;;;14.00;;
13388;SDS011;6764;53.250;10.410;2022-10-15T03:33:15;14.40;;;12.90;;
13388;SDS011;6764;53.250;10.410;2022-10-15T03:35:40;15.40;;;13.53;;
13388;SDS011;6764;53.250;10.410;2022-10-15T03:38:06;17.50;;;14.47;;
13388;SDS011;6764;53.250;10.410;2022-10-15T03:40:32;15.17;;;13.57;;
13388;SDS011;6764;53.250;10.410;2022-10-15T03:42:58;14.63;;;12.43;;
13388;SDS011;6764;53.250;10.410;2022-10-15T03:45:24;17.10;;;13.50;;
13388;SDS011;6764;53.250;10.410;2022-10-15T03:47:49;14.30;;;12.80;;
13388;SDS011;6764;53.250;10.410;2022-10-15T03:50:15;16.63;;;14.57;;
13388;SDS011;6764;53.250;10.410;2022-10-15T03:52:41;14.00;;;12.60;;
13388;SDS011;6764;53.250;10.410;2022-10-15T03:55:07;15.03;;;13.43;;
13388;SDS011;6764;53.250;10.410;2022-10-15T03:57:34;15.30;;;13.20;;
13388;SDS011;6764;53.250;10.410;2022-10-15T04:00:00;16.03;;;14.27;;
13388;SDS011;6764;53.250;10.410;2022-10-15T04:02:26;15.27;;;13.67;;
13388;SDS011;6764;53.250;10.410;2022-10-15T04:04:52;15.63;;;14.03;;
13388;SDS011;6764;53.250;10.410;2022-10-15T04:07:19;15.40;;;13.80;;
13388;SDS011;6764;53.250;10.410;2022-10-15T04:09:45;15.30;;;13.33;;
13388;SDS011;6764;53.250;10.410;2022-10-15T04:12:11;15.00;;;13.50;;
13388;SDS011;6764;53.250;10.410;2022-10-15T04:14:36;15.90;;;14.23;;
13388;SDS011;6764;53.250;10.410;2022-10-15T04:17:02;18.33;;;13.73;;
13388;SDS011;6764;53.250;10.410;2022-10-15T04:19:28;17.30;;;14.57;;
13388;SDS011;6764;53.250;10.410;2022-10-15T04:21:54;19.53;;;14.73;;
13388;SDS011;6764;53.250;10.410;2022-10-15T04:24:20;15.67;;;13.63;;
13388;SDS011;6764;53.250;10.410;2022-10-15T04:26:45;15.40;;;13.73;;
13388;SDS011;6764;53.250;10.410;2022-10-15T04:29:11;18.40;;;14.40;;
13388;SDS011;6764;53.250;10.410;2022-10-15T04:31:36;16.40;;;13.97;;
13388;SDS011;6764;53.250;10.410;2022-10-15T04:34:02;17.07;;;14.30;;
13388;SDS011;6764;53.250;10.410;2022-10-15T04:36:31;15.17;;;13.67;;
13388;SDS011;6764;53.250;10.410;2022-10-15T04:38:56;18.83;;;14.17;;
13388;SDS011;6764;53.250;10.410;2022-10-15T04:41:24;16.47;;;13.90;;
13388;SDS011;6764;53.250;10.410;2022-10-15T04:43:50;18.67;;;15.07;;
13388;SDS011;6764;53.250;10.410;2022-10-15T04:46:22;16.77;;;14.80;;
13388;SDS011;6764;53.250;10.410;2022-10-15T04:48:48;16.80;;;14.97;;
13388;SDS011;6764;53.250;10.410;2022-10-15T04:51:15;17.33;;;14.70;;
13388;SDS011;6764;53.250;10.410;2022-10-15T04:53:42;18.20;;;16.10;;
13388;SDS011;6764;53.250;10.410;2022-10-15T04:56:12;17.53;;;15.03;;
13388;SDS011;6764;53.250;10.410;2022-10-15T04:58:40;19.93;;;16.10;;
13388;SDS011;6764;53.250;10.410;2022-10-15T05:01:07;20.30;;;15.23;;
13388;SDS011;6764;53.250;10.410;2022-10-15T05:03:37;17.63;;;14.67;;
13388;SDS011;6764;53.250;10.410;2022-10-15T05:06:09;17.93;;;15.33;;
13388;SDS011;6764;53.250;10.410;2022-10-15T05:08:39;16.10;;;14.20;;
13388;SDS011;6764;53.250;10.410;2022-10-15T05:11:26;16.83;;;15.03;;
13388;SDS011;6764;53.250;10.410;2022-10-15T05:13:55;18.83;;;16.03;;
13388;SDS011;6764;53.250;10.410;2022-10-15T05:16:23;19.20;;;15.13;;
13388;SDS011;6764;53.250;10.410;2022-10-15T05:18:51;20.23;;;16.23;;
13388;SDS011;6764;53.250;10.410;2022-10-15T05:21:20;21.50;;;16.67;;
13388;SDS011;6764;53.250;10.410;2022-10-15T05:23:45;17.67;;;15.20;;
13388;SDS011;6764;53.250;10.410;2022-10-15T05:26:14;16.73;;;14.93;;
13388;SDS011;6764;53.250;10.410;2022-10-15T05:28:44;20.17;;;15.37;;
13388;SDS011;6764;53.250;10.410;2022-10-15T05:31:11;17.20;;;15.10;;
13388;SDS011;6764;53.250;10.410;2022-10-15T05:33:41;18.90;;;14.67;;
13388;SDS011;6764;53.250;10.410;2022-10-15T05:38:44;18.37;;;14.93;;
13388;SDS011;6764;53.250;10.410;2022-10-15T05:41:10;19.87;;;15.87;;
13388;SDS011;6764;53.250;10.410;2022-10-15T05:43:36;22.37;;;13.83;;
13388;SDS011;6764;53.250;10.410;2022-10-15T05:46:02;16.07;;;13.23;;
13388;SDS011;6764;53.250;10.410;2022-10-15T05:48:28;20.20;;;14.30;;
13388;SDS011;6764;53.250;10.410;2022-10-15T05:50:58;15.50;;;12.57;;
13388;SDS011;6764;53.250;10.410;2022-10-15T05:53:25;14.80;;;12.87;;
13388;SDS011;6764;53.250;10.410;2022-10-15T05:55:51;14.70;;;12.77;;
13388;SDS011;6764;53.250;10.410;2022-10-15T05:58:17;17.70;;;13.83;;
13388;SDS011;6764;53.250;10.410;2022-10-15T06:00:43;16.73;;;14.07;;
13388;SDS011;6764;53.250;10.410;2022-10-15T06:03:12;15.83;;;13.23;;
13388;SDS011;6764;53.250;10.410;2022-10-15T06:05:38;17.67;;;13.87;;
13388;SDS011;6764;53.250;10.410;2022-10-15T06:08:04;15.93;;;13.37;;
13388;SDS011;6764;53.250;10.410;2022-10-15T06:10:30;16.70;;;13.43;;
13388;SDS011;6764;53.250;10.410;2022-10-15T06:12:59;20.90;;;14.93;;
13388;SDS011;6764;53.250;10.410;2022-10-15T06:15:24;24.90;;;15.83;;
13388;SDS011;6764;53.250;10.410;2022-10-15T06:17:51;21.17;;;15.83;;
13388;SDS011;6764;53.250;10.410;2022-10-15T06:20:18;17.83;;;15.23;;
13388;SDS011;6764;53.250;10.410;2022-10-15T06:22:43;17.90;;;15.30;;
13388;SDS011;6764;53.250;10.410;2022-10-15T06:25:09;19.57;;;15.10;;
13388;SDS011;6764;53.250;10.410;2022-10-15T06:27:34;19.40;;;15.93;;
13388;SDS011;6764;53.250;10.410;2022-10-15T06:30:00;18.23;;;14.23;;
13388;SDS011;6764;53.250;10.410;2022-10-15T06:32:26;25.87;;;23.13;;
13388;SDS011;6764;53.250;10.410;2022-10-15T06:34:51;20.63;;;14.97;;
13388;SDS011;6764;53.250;10.410;2022-10-15T06:37:17;20.20;;;15.37;;
13388;SDS011;6764;53.250;10.410;2022-10-15T06:39:43;21.33;;;17.77;;
13388;SDS011;6764;53.250;10.410;2022-10-15T06:42:10;17.13;;;15.30;;
13388;SDS011;6764;53.250;10.410;2022-10-15T06:44:36;20.03;;;16.23;;
13388;SDS011;6764;53.250;10.410;2022-10-15T06:47:02;20.87;;;15.30;;
13388;SDS011;6764;53.250;10.410;2022-10-15T06:49:27;21.17;;;15.33;;
13388;SDS011;6764;53.250;10.410;2022-10-15T06:51:53;18.10;;;14.63;;
13388;SDS011;6764;53.250;10.410;2022-10-15T06:54:18;20.43;;;15.40;;
13388;SDS011;6764;53.250;10.410;2022-10-15T06:56:44;18.37;;;14.00;;
13388;SDS011;6764;53.250;10.410;2022-10-15T06:59:10;18.53;;;14.67;;
13388;SDS011;6764;53.250;10.410;2022-10-15T07:01:38;18.23;;;14.63;;
13388;SDS011;6764;53.250;10.410;2022-10-15T07:04:03;16.80;;;14.03;;
13388;SDS011;6764;53.250;10.410;2022-10-15T07:06:29;16.43;;;13.60;;
13388;SDS011;6764;53.250;10.410;2022-10-15T07:08:54;19.27;;;15.07;;
13388;SDS011;6764;53.250;10.410;2022-10-15T07:11:22;19.20;;;15.07;;
13388;SDS011;6764;53.250;10.410;2022-10-15T07:13:50;18.67;;;14.17;;
13388;SDS011;6764;53.250;10.410;2022-10-15T07:16:16;18.67;;;15.13;;
13388;SDS011;6764;53.250;10.410;2022-10-15T07:18:41;24.00;;;17.20;;
13388;SDS011;6764;53.250;10.410;2022-10-15T07:21:07;20.77;;;16.40;;
13388;SDS011;6764;53.250;10.410;2022-10-15T07:23:33;18.07;;;14.83;;
13388;SDS011;6764;53.250;10.410;2022-10-15T07:25:59;20.87;;;15.60;;
13388;SDS011;6764;53.250;10.410;2022-10-15T07:28:25;19.60;;;14.83;;
13388;SDS011;6764;53.250;10.410;2022-10-15T07:30:51;18.43;;;14.30;;
13388;SDS011;6764;53.250;10.410;2022-10-15T07:33:17;18.17;;;14.03;;
13388;SDS011;6764;53.250;10.410;2022-10-15T07:35:42;16.03;;;13.77;;
13388;SDS011;6764;53.250;10.410;2022-10-15T07:38:08;17.77;;;14.27;;
13388;SDS011;6764;53.250;10.410;2022-10-15T07:40:34;16.93;;;14.60;;
13388;SDS011;6764;53.250;10.410;2022-10-15T07:42:59;21.77;;;16.10;;
13388;SDS011;6764;53.250;10.410;2022-10-15T07:45:26;18.20;;;15.77;;
13388;SDS011;6764;53.250;10.410;2022-10-15T07:47:51;21.27;;;15.37;;
13388;SDS011;6764;53.250;10.410;2022-10-15T07:50:18;17.30;;;15.50;;
13388;SDS011;6764;53.250;10.410;2022-10-15T07:52:44;19.88;;;16.25;;
13388;SDS011;6764;53.250;10.410;2022-10-15T07:55:10;21.87;;;15.77;;
13388;SDS011;6764;53.250;10.410;2022-10-15T07:57:36;21.50;;;16.40;;
13388;SDS011;6764;53.250;10.410;2022-10-15T08:00:02;16.23;;;13.80;;
13388;SDS011;6764;53.250;10.410;2022-10-15T08:02:29;18.30;;;13.55;;
13388;SDS011;6764;53.250;10.410;2022-10-15T08:04:54;15.25;;;13.65;;
13388;SDS011;6764;53.250;10.410;2022-10-15T08:07:20;18.73;;;13.68;;
13388;SDS011;6764;53.250;10.410;2022-10-15T08:09:45;18.50;;;15.90;;
13388;SDS011;6764;53.250;10.410;2022-10-15T08:12:13;18.58;;;14.23;;
13388;SDS011;6764;53.250;10.410;2022-10-15T08:14:39;17.92;;;13.82;;
13388;SDS011;6764;53.250;10.410;2022-10-15T08:17:05;16.55;;;14.13;;
13388;SDS011;6764;53.250;10.410;2022-10-15T08:19:30;20.42;;;14.95;;
13388;SDS011;6764;53.250;10.410;2022-10-15T08:21:56;15.45;;;13.93;;
13388;SDS011;6764;53.250;10.410;2022-10-15T08:24:22;16.75;;;13.55;;
13388;SDS011;6764;53.250;10.410;2022-10-15T08:26:48;29.90;;;19.05;;
13388;SDS011;6764;53.250;10.410;2022-10-15T08:29:14;20.42;;;16.38;;
13388;SDS011;6764;53.250;10.410;2022-10-15T08:31:40;18.13;;;14.32;;
13388;SDS011;6764;53.250;10.410;2022-10-15T08:34:06;22.17;;;16.67;;
13388;SDS011;6764;53.250;10.410;2022-10-15T08:36:32;19.35;;;14.18;;
13388;SDS011;6764;53.250;10.410;2022-10-15T08:38:57;17.67;;;14.02;;
13388;SDS011;6764;53.250;10.410;2022-10-15T08:44:02;15.10;;;12.35;;
13388;SDS011;6764;53.250;10.410;2022-10-15T08:46:39;13.30;;;11.80;;
13388;SDS011;6764;53.250;10.410;2022-10-15T08:49:13;17.00;;;12.70;;
13388;SDS011;6764;53.250;10.410;2022-10-15T08:51:56;19.90;;;13.32;;
13388;SDS011;6764;53.250;10.410;2022-10-15T08:54:32;17.77;;;12.45;;
13388;SDS011;6764;53.250;10.410;2022-10-15T08:57:06;16.73;;;11.98;;
13388;SDS011;6764;53.250;10.410;2022-10-15T09:00:00;13.48;;;11.82;;
13388;SDS011;6764;53.250;10.410;2022-10-15T09:02:41;16.15;;;11.60;;
13388;SDS011;6764;53.250;10.410;2022-10-15T09:05:31;13.40;;;11.63;;
13388;SDS011;6764;53.250;10.410;2022-10-15T09:08:17;16.35;;;12.27;;
13388;SDS011;6764;53.250;10.410;2022-10-15T09:11:04;16.25;;;12.38;;
13388;SDS011;6764;53.250;10.410;2022-10-15T09:14:05;15.93;;;11.35;;
13388;SDS011;6764;53.250;10.410;2022-10-15T09:16:36;16.65;;;11.40;;
13388;SDS011;6764;53.250;10.410;2022-10-15T09:19:05;16.17;;;11.50;;
13388;SDS011;6764;53.250;10.410;2022-10-15T09:21:42;14.73;;;12.15;;
13388;SDS011;6764;53.250;10.410;2022-10-15T09:24:19;13.40;;;10.65;;
13388;SDS011;6764;53.250;10.410;2022-10-15T09:29:32;13.20;;;10.20;;
13388;SDS011;6764;53.250;10.410;2022-10-15T09:32:29;13.82;;;9.73;;
13388;SDS011;6764;53.250;10.410;2022-10-15T09:37:58;12.68;;;10.05;;
13388;SDS011;6764;53.250;10.410;2022-10-15T09:42:58;12.13;;;8.75;;
13388;SDS011;6764;53.250;10.410;2022-10-15T09:45:24;9.88;;;8.27;;
13388;SDS011;6764;53.250;10.410;2022-10-15T09:47:51;8.35;;;7.05;;
13388;SDS011;6764;53.250;10.410;2022-10-15T09:50:20;9.02;;;7.57;;
13388;SDS011;6764;53.250;10.410;2022-10-15T09:53:00;9.25;;;7.30;;
13388;SDS011;6764;53.250;10.410;2022-10-15T09:55:50;8.88;;;6.72;;
13388;SDS011;6764;53.250;10.410;2022-10-15T09:58:21;8.40;;;7.32;;
13388;SDS011;6764;53.250;10.410;2022-10-15T10:00:54;7.68;;;6.18;;
13388;SDS011;6764;53.250;10.410;2022-10-15T10:03:21;11.50;;;7.63;;
13388;SDS011;6764;53.250;10.410;2022-10-15T10:05:48;7.28;;;5.82;;
13388;SDS011;6764;53.250;10.410;2022-10-15T10:08:19;7.47;;;6.05;;
13388;SDS011;6764;53.250;10.410;2022-10-15T10:10:52;8.30;;;6.45;;
13388;SDS011;6764;53.250;10.410;2022-10-15T10:13:29;6.82;;;6.13;;
13388;SDS011;6764;53.250;10.410;2022-10-15T10:16:10;8.13;;;5.90;;
13388;SDS011;6764;53.250;10.410;2022-10-15T10:18:36;6.78;;;5.45;;
13388;SDS011;6764;53.250;10.410;2022-10-15T10:21:04;8.25;;;5.40;;
13388;SDS011;6764;53.250;10.410;2022-10-15T10:25:59;7.38;;;5.80;;
13388;SDS011;6764;53.250;10.410;2022-10-15T10:28:33;7.80;;;5.88;;
13388;SDS011;6764;53.250;10.410;2022-10-15T10:31:06;7.53;;;5.72;;
13388;SDS011;6764;53.250;10.410;2022-10-15T10:36:08;6.03;;;5.15;;
13388;SDS011;6764;53.250;10.410;2022-10-15T10:41:51;6.22;;;5.35;;
13388;SDS011;6764;53.250;10.410;2022-10-15T10:44:38;8.05;;;5.03;;
13388;SDS011;6764;53.250;10.410;2022-10-15T10:47:15;5.93;;;5.18;;
13388;SDS011;6764;53.250;10.410;2022-10-15T10:52:20;8.15;;;6.22;;
13388;SDS011;6764;53.250;10.410;2022-10-15T10:54:56;8.48;;;6.07;;
13388;SDS011;6764;53.250;10.410;2022-10-15T10:57:42;5.90;;;4.70;;
13388;SDS011;6764;53.250;10.410;2022-10-15T11:00:22;5.22;;;4.63;;
13388;SDS011;6764;53.250;10.410;2022-10-15T11:03:19;6.53;;;5.03;;
13388;SDS011;6764;53.250;10.410;2022-10-15T11:14:33;5.82;;;4.30;;
13388;SDS011;6764;53.250;10.410;2022-10-15T11:25:34;6.85;;;4.63;;
13388;SDS011;6764;53.250;10.410;2022-10-15T11:28:18;5.15;;;3.47;;
13388;SDS011;6764;53.250;10.410;2022-10-15T11:36:46;4.25;;;3.05;;
13388;SDS011;6764;53.250;10.410;2022-10-15T11:47:49;5.47;;;2.78;;
13388;SDS011;6764;53.250;10.410;2022-10-15T11:55:40;3.40;;;2.10;;
13388;SDS011;6764;53.250;10.410;2022-10-15T11:58:17;4.00;;;2.63;;
13388;SDS011;6764;53.250;10.410;2022-10-15T12:01:10;4.03;;;2.83;;
13388;SDS011;6764;53.250;10.410;2022-10-15T12:04:01;4.97;;;3.60;;
13388;SDS011;6764;53.250;10.410;2022-10-15T12:06:35;5.70;;;4.25;;
13388;SDS011;6764;53.250;10.410;2022-10-15T12:09:04;7.95;;;5.22;;
13388;SDS011;6764;53.250;10.410;2022-10-15T12:19:59;31.05;;;27.05;;
13388;SDS011;6764;53.250;10.410;2022-10-15T12:22:52;3.95;;;3.40;;
13388;SDS011;6764;53.250;10.410;2022-10-15T12:27:58;7.05;;;5.28;;
13388;SDS011;6764;53.250;10.410;2022-10-15T12:30:34;10.55;;;7.93;;
13388;SDS011;6764;53.250;10.410;2022-10-15T12:33:18;8.27;;;7.47;;
13388;SDS011;6764;53.250;10.410;2022-10-15T12:36:30;9.80;;;8.45;;
13388;SDS011;6764;53.250;10.410;2022-10-15T12:38:57;9.95;;;8.95;;
13388;SDS011;6764;53.250;10.410;2022-10-15T12:41:38;11.30;;;10.18;;
13388;SDS011;6764;53.250;10.410;2022-10-15T12:44:28;15.73;;;14.10;;
13388;SDS011;6764;53.250;10.410;2022-10-15T12:46:56;12.05;;;10.57;;
13388;SDS011;6764;53.250;10.410;2022-10-15T12:51:55;11.93;;;10.65;;
13388;SDS011;6764;53.250;10.410;2022-10-15T12:54:31;10.77;;;9.77;;
13388;SDS011;6764;53.250;10.410;2022-10-15T12:56:58;10.07;;;9.18;;
13388;SDS011;6764;53.250;10.410;2022-10-15T12:59:30;11.63;;;9.50;;
13388;SDS011;6764;53.250;10.410;2022-10-15T13:05:26;9.80;;;8.80;;
13388;SDS011;6764;53.250;10.410;2022-10-15T13:07:54;10.60;;;9.30;;
13388;SDS011;6764;53.250;10.410;2022-10-15T13:10:27;10.75;;;9.60;;
13388;SDS011;6764;53.250;10.410;2022-10-15T13:13:04;10.82;;;8.80;;
13388;SDS011;6764;53.250;10.410;2022-10-15T13:15:31;11.13;;;9.80;;
13388;SDS011;6764;53.250;10.410;2022-10-15T13:17:59;10.00;;;9.10;;
13388;SDS011;6764;53.250;10.410;2022-10-15T13:20:41;12.25;;;9.52;;
13388;SDS011;6764;53.250;10.410;2022-10-15T13:23:16;11.65;;;9.45;;
13388;SDS011;6764;53.250;10.410;2022-10-15T13:25:51;10.10;;;9.10;;
13388;SDS011;6764;53.250;10.410;2022-10-15T13:28:38;10.68;;;9.60;;
13388;SDS011;6764;53.250;10.410;2022-10-15T13:31:19;11.30;;;9.10;;
13388;SDS011;6764;53.250;10.410;2022-10-15T13:33:49;9.07;;;8.18;;
13388;SDS011;6764;53.250;10.410;2022-10-15T13:36:19;8.80;;;7.85;;
13388;SDS011;6764;53.250;10.410;2022-10-15T13:39:36;7.88;;;7.07;;
13388;SDS011;6764;53.250;10.410;2022-10-15T13:41:54;8.55;;;7.75;;
13388;SDS011;6764;53.250;10.410;2022-10-15T13:44:31;9.07;;;8.07;;
13388;SDS011;6764;53.250;10.410;2022-10-15T13:46:57;8.68;;;7.88;;
13388;SDS011;6764;53.250;10.410;2022-10-15T13:49:25;8.30;;;7.60;;
13388;SDS011;6764;53.250;10.410;2022-10-15T13:51:51;9.38;;;8.50;;
13388;SDS011;6764;53.250;10.410;2022-10-15T13:54:24;7.95;;;7.25;;
13388;SDS011;6764;53.250;10.410;2022-10-15T13:56:56;11.32;;;8.13;;
13388;SDS011;6764;53.250;10.410;2022-10-15T13:59:24;8.32;;;7.50;;
13388;SDS011;6764;53.250;10.410;2022-10-15T14:01:56;9.50;;;7.47;;
13388;SDS011;6764;53.250;10.410;2022-10-15T14:04:28;21.25;;;19.17;;
13388;SDS011;6764;53.250;10.410;2022-10-15T14:09:50;7.75;;;7.10;;
13388;SDS011;6764;53.250;10.410;2022-10-15T14:12:20;9.20;;;8.20;;
13388;SDS011;6764;53.250;10.410;2022-10-15T14:14:45;11.25;;;9.82;;
13388;SDS011;6764;53.250;10.410;2022-10-15T14:17:19;8.93;;;8.02;;
13388;SDS011;6764;53.250;10.410;2022-10-15T14:19:54;8.57;;;7.78;;
13388;SDS011;6764;53.250;10.410;2022-10-15T14:22:26;7.75;;;7.05;;
13388;SDS011;6764;53.250;10.410;2022-10-15T14:24:53;8.52;;;7.78;;
13388;SDS011;6764;53.250;10.410;2022-10-15T14:27:24;7.30;;;6.70;;
13388;SDS011;6764;53.250;10.410;2022-10-15T14:29:51;7.53;;;6.82;;
13388;SDS011;6764;53.250;10.410;2022-10-15T14:32:28;8.45;;;7.22;;
13388;SDS011;6764;53.250;10.410;2022-10-15T14:35:32;6.88;;;6.18;;
13388;SDS011;6764;53.250;10.410;2022-10-15T14:40:39;7.10;;;6.30;;
13388;SDS011;6764;53.250;10.410;2022-10-15T14:45:38;7.18;;;6.25;;
13388;SDS011;6764;53.250;10.410;2022-10-15T14:48:10;7.28;;;6.57;;
13388;SDS011;6764;53.250;10.410;2022-10-15T14:50:43;5.95;;;5.45;;
13388;SDS011;6764;53.250;10.410;2022-10-15T14:53:09;6.53;;;6.03;;
13388;SDS011;6764;53.250;10.410;2022-10-15T14:55:50;6.22;;;5.70;;
13388;SDS011;6764;53.250;10.410;2022-10-15T14:58:20;7.15;;;5.82;;
13388;SDS011;6764;53.250;10.410;2022-10-15T15:00:48;5.78;;;5.28;;
13388;SDS011;6764;53.250;10.410;2022-10-15T15:03:27;6.50;;;5.85;;
13388;SDS011;6764;53.250;10.410;2022-10-15T15:06:04;6.10;;;5.50;;
13388;SDS011;6764;53.250;10.410;2022-10-15T15:08:30;6.22;;;5.65;;
13388;SDS011;6764;53.250;10.410;2022-10-15T15:10:56;6.50;;;5.90;;
13388;SDS011;6764;53.250;10.410;2022-10-15T15:13:25;6.78;;;6.10;;
13388;SDS011;6764;53.250;10.410;2022-10-15T15:15:52;6.43;;;5.85;;
13388;SDS011;6764;53.250;10.410;2022-10-15T15:18:18;6.50;;;5.90;;
13388;SDS011;6764;53.250;10.410;2022-10-15T15:20:45;6.10;;;5.60;;
13388;SDS011;6764;53.250;10.410;2022-10-15T15:23:22;6.70;;;5.65;;
13388;SDS011;6764;53.250;10.410;2022-10-15T15:25:49;9.48;;;8.57;;
13388;SDS011;6764;53.250;10.410;2022-10-15T15:28:19;8.48;;;7.72;;
13388;SDS011;6764;53.250;10.410;2022-10-15T15:30:54;6.60;;;6.00;;
13388;SDS011;6764;53.250;10.410;2022-10-15T15:33:21;10.63;;;5.57;;
13388;SDS011;6764;53.250;10.410;2022-10-15T15:35:47;5.65;;;5.15;;
13388;SDS011;6764;53.250;10.410;2022-10-15T15:38:16;6.10;;;5.45;;
13388;SDS011;6764;53.250;10.410;2022-10-15T15:40:42;6.68;;;5.95;;
13388;SDS011;6764;53.250;10.410;2022-10-15T15:43:10;12.25;;;10.95;;
13388;SDS011;6764;53.250;10.410;2022-10-15T15:45:37;6.10;;;5.50;;
13388;SDS011;6764;53.250;10.410;2022-10-15T15:48:03;6.40;;;5.88;;
13388;SDS011;6764;53.250;10.410;2022-10-15T15:50:29;5.60;;;5.18;;
13388;SDS011;6764;53.250;10.410;2022-10-15T15:52:55;6.40;;;5.68;;
13388;SDS011;6764;53.250;10.410;2022-10-15T15:55:21;6.80;;;4.80;;
13388;SDS011;6764;53.250;10.410;2022-10-15T15:57:47;7.10;;;6.38;;
13388;SDS011;6764;53.250;10.410;2022-10-15T16:00:12;6.13;;;5.20;;
13388;SDS011;6764;53.250;10.410;2022-10-15T16:02:39;6.00;;;5.45;;
13388;SDS011;6764;53.250;10.410;2022-10-15T16:05:06;6.05;;;5.55;;
13388;SDS011;6764;53.250;10.410;2022-10-15T16:07:32;6.63;;;6.03;;
13388;SDS011;6764;53.250;10.410;2022-10-15T16:09:58;6.22;;;5.60;;
13388;SDS011;6764;53.250;10.410;2022-10-15T16:12:24;5.88;;;5.28;;
13388;SDS011;6764;53.250;10.410;2022-10-15T16:14:50;6.57;;;5.95;;
13388;SDS011;6764;53.250;10.410;2022-10-15T16:17:16;6.03;;;5.47;;
13388;SDS011;6764;53.250;10.410;2022-10-15T16:19:42;6.57;;;5.03;;
13388;SDS011;6764;53.250;10.410;2022-10-15T16:22:07;6.13;;;5.63;;
13388;SDS011;6764;53.250;10.410;2022-10-15T16:24:33;6.35;;;4.80;;
13388;SDS011;6764;53.250;10.410;2022-10-15T16:26:59;5.80;;;5.30;;
13388;SDS011;6764;53.250;10.410;2022-10-15T16:29:25;14.18;;;5.88;;
13388;SDS011;6764;53.250;10.410;2022-10-15T16:31:53;5.30;;;4.82;;
13388;SDS011;6764;53.250;10.410;2022-10-15T16:34:19;5.13;;;4.65;;
13388;SDS011;6764;53.250;10.410;2022-10-15T16:36:45;5.40;;;4.90;;
13388;SDS011;6764;53.250;10.410;2022-10-15T16:39:10;6.72;;;4.70;;